EZY646Q EGGP-EGAC
Flight info
| Callsign | EZY646Q |
|---|---|
| Flight time | 0h 38m |
| Altitude | 22000 |
| Route | WAL M146 ERDUV Z198 MASOP M148 MAGEE |
| Aircraft | A320/M-SDE3FGHIRWY/LB1 |
Departure
| Time | 2026-04-29 11:43 |
|---|---|
| Airport | Liverpool John Lennon Airport (EGGP) |
Arrival
| Time | 2026-04-29 12:22 |
|---|---|
| Airport | George Best Belfast City Airport (EGAC) |
| Time | Latitude | Longitude | Altitude | Speed | Heading |
|---|---|---|---|---|---|
| 2026-04-29 11:16 | 53.33662 | -2.85586 | 89 ft | 0 kts | 354° |
| 2026-04-29 11:36 | 53.33647 | -2.85585 | 90 ft | 4 kts | 355° |
| 2026-04-29 11:36 | 53.33623 | -2.85574 | 87 ft | 4 kts | 314° |
| 2026-04-29 11:37 | 53.33613 | -2.85539 | 89 ft | 3 kts | 267° |
| 2026-04-29 11:37 | 53.33614 | -2.85527 | 87 ft | 0 kts | 266° |
| 2026-04-29 11:39 | 53.33614 | -2.85535 | 85 ft | 2 kts | 266° |
| 2026-04-29 11:39 | 53.33611 | -2.85607 | 87 ft | 9 kts | 266° |
| 2026-04-29 11:39 | 53.33606 | -2.85717 | 85 ft | 9 kts | 265° |
| 2026-04-29 11:40 | 53.33601 | -2.85817 | 87 ft | 8 kts | 265° |
| 2026-04-29 11:40 | 53.33596 | -2.85905 | 90 ft | 7 kts | 261° |
| 2026-04-29 11:40 | 53.33559 | -2.85937 | 88 ft | 9 kts | 182° |
| 2026-04-29 11:40 | 53.33498 | -2.85942 | 89 ft | 9 kts | 207° |
| 2026-04-29 11:41 | 53.33481 | -2.86031 | 86 ft | 8 kts | 267° |
| 2026-04-29 11:41 | 53.33478 | -2.86125 | 84 ft | 10 kts | 266° |
| 2026-04-29 11:41 | 53.33471 | -2.86251 | 84 ft | 12 kts | 264° |
| 2026-04-29 11:41 | 53.33465 | -2.86392 | 85 ft | 12 kts | 266° |
| 2026-04-29 11:42 | 53.33459 | -2.86536 | 81 ft | 14 kts | 266° |
| 2026-04-29 11:42 | 53.33430 | -2.86702 | 72 ft | 15 kts | 223° |
| 2026-04-29 11:42 | 53.33338 | -2.86715 | 74 ft | 14 kts | 157° |
| 2026-04-29 11:42 | 53.33288 | -2.86579 | 73 ft | 17 kts | 88° |
| 2026-04-29 11:43 | 53.33311 | -2.86085 | 70 ft | 77 kts | 85° |
| 2026-04-29 11:43 | 53.33368 | -2.84833 | 89 ft | 135 kts | 88° |
| 2026-04-29 11:43 | 53.33444 | -2.83215 | 632 ft | 139 kts | 86° |
| 2026-04-29 11:43 | 53.33525 | -2.81595 | 1289 ft | 140 kts | 87° |
| 2026-04-29 11:44 | 53.33626 | -2.79893 | 1742 ft | 158 kts | 83° |
| 2026-04-29 11:44 | 53.33990 | -2.77983 | 2056 ft | 187 kts | 67° |
| 2026-04-29 11:44 | 53.34781 | -2.76054 | 2419 ft | 218 kts | 51° |
| 2026-04-29 11:44 | 53.36067 | -2.74430 | 3044 ft | 245 kts | 31° |
| 2026-04-29 11:45 | 53.37765 | -2.73653 | 4002 ft | 262 kts | 10° |
| 2026-04-29 11:45 | 53.39625 | -2.74059 | 4918 ft | 283 kts | 345° |
| 2026-04-29 11:45 | 53.41326 | -2.75886 | 5796 ft | 300 kts | 315° |
| 2026-04-29 11:45 | 53.42381 | -2.78899 | 6808 ft | 304 kts | 285° |
| 2026-04-29 11:46 | 53.42531 | -2.82399 | 7735 ft | 303 kts | 258° |
| 2026-04-29 11:46 | 53.42153 | -2.85897 | 8660 ft | 305 kts | 256° |
| 2026-04-29 11:46 | 53.41753 | -2.89412 | 9550 ft | 310 kts | 257° |
| 2026-04-29 11:46 | 53.41347 | -2.92946 | 10403 ft | 315 kts | 257° |
| 2026-04-29 11:47 | 53.40976 | -2.96727 | 10798 ft | 338 kts | 260° |
| 2026-04-29 11:47 | 53.40632 | -3.00740 | 11082 ft | 360 kts | 260° |
| 2026-04-29 11:47 | 53.40267 | -3.04941 | 11635 ft | 371 kts | 259° |
| 2026-04-29 11:47 | 53.39744 | -3.09211 | 12356 ft | 376 kts | 253° |
| 2026-04-29 11:48 | 53.39344 | -3.13587 | 13048 ft | 386 kts | 271° |
| 2026-04-29 11:48 | 53.39964 | -3.17942 | 13743 ft | 391 kts | 297° |
| 2026-04-29 11:48 | 53.41586 | -3.21572 | 14416 ft | 390 kts | 320° |
| 2026-04-29 11:48 | 53.43720 | -3.24358 | 15070 ft | 390 kts | 329° |
| 2026-04-29 11:49 | 53.45965 | -3.26956 | 15732 ft | 393 kts | 329° |
| 2026-04-29 11:49 | 53.48228 | -3.29570 | 16399 ft | 397 kts | 329° |
| 2026-04-29 11:49 | 53.50457 | -3.32347 | 17045 ft | 403 kts | 324° |
| 2026-04-29 11:49 | 53.52562 | -3.35525 | 17695 ft | 409 kts | 319° |
| 2026-04-29 11:50 | 53.54560 | -3.38957 | 18340 ft | 414 kts | 316° |
| 2026-04-29 11:50 | 53.56517 | -3.42537 | 18934 ft | 418 kts | 315° |
| 2026-04-29 11:50 | 53.58373 | -3.46335 | 19489 ft | 424 kts | 307° |
| 2026-04-29 11:50 | 53.60004 | -3.50508 | 20055 ft | 427 kts | 306° |
| 2026-04-29 11:51 | 53.61679 | -3.54650 | 20622 ft | 430 kts | 307° |
| 2026-04-29 11:51 | 53.63408 | -3.58785 | 21191 ft | 434 kts | 308° |
| 2026-04-29 11:51 | 53.65159 | -3.62885 | 21753 ft | 437 kts | 308° |
| 2026-04-29 11:51 | 53.66972 | -3.67101 | 22241 ft | 441 kts | 308° |
| 2026-04-29 11:52 | 53.68745 | -3.71253 | 22341 ft | 442 kts | 308° |
| 2026-04-29 11:52 | 53.70527 | -3.75478 | 22378 ft | 441 kts | 308° |
| 2026-04-29 11:52 | 53.72295 | -3.79717 | 22379 ft | 441 kts | 307° |
| 2026-04-29 11:52 | 53.74052 | -3.83953 | 22381 ft | 441 kts | 307° |
| 2026-04-29 11:53 | 53.75817 | -3.88219 | 22379 ft | 441 kts | 307° |
| 2026-04-29 11:53 | 53.77575 | -3.92470 | 22377 ft | 441 kts | 307° |
| 2026-04-29 11:53 | 53.79334 | -3.96730 | 22385 ft | 441 kts | 307° |
| 2026-04-29 11:53 | 53.81094 | -4.00993 | 22382 ft | 441 kts | 307° |
| 2026-04-29 11:54 | 53.82844 | -4.05241 | 22386 ft | 441 kts | 307° |
| 2026-04-29 11:54 | 53.84608 | -4.09504 | 22388 ft | 440 kts | 309° |
| 2026-04-29 11:54 | 53.86607 | -4.13398 | 22386 ft | 437 kts | 319° |
| 2026-04-29 11:54 | 53.88922 | -4.16695 | 22393 ft | 432 kts | 329° |
| 2026-04-29 11:55 | 53.91486 | -4.19306 | 22391 ft | 427 kts | 339° |
| 2026-04-29 11:55 | 53.94167 | -4.21212 | 22379 ft | 422 kts | 343° |
| 2026-04-29 11:55 | 53.96927 | -4.23031 | 22393 ft | 421 kts | 343° |
| 2026-04-29 11:55 | 53.99659 | -4.24832 | 22399 ft | 420 kts | 343° |
| 2026-04-29 11:56 | 54.02346 | -4.26606 | 22399 ft | 420 kts | 343° |
| 2026-04-29 11:56 | 54.05074 | -4.28411 | 22402 ft | 420 kts | 343° |
| 2026-04-29 11:56 | 54.07793 | -4.30216 | 22405 ft | 420 kts | 343° |
| 2026-04-29 11:56 | 54.10520 | -4.32031 | 22404 ft | 420 kts | 343° |
| 2026-04-29 11:57 | 54.13175 | -4.34195 | 22404 ft | 425 kts | 334° |
| 2026-04-29 11:57 | 54.15607 | -4.37118 | 22392 ft | 431 kts | 323° |
| 2026-04-29 11:57 | 54.17722 | -4.40728 | 22278 ft | 431 kts | 312° |
| 2026-04-29 11:57 | 54.19488 | -4.44855 | 22015 ft | 428 kts | 307° |
| 2026-04-29 11:58 | 54.21178 | -4.49008 | 21748 ft | 426 kts | 307° |
| 2026-04-29 11:58 | 54.22868 | -4.53161 | 21492 ft | 424 kts | 307° |
| 2026-04-29 11:58 | 54.24535 | -4.57242 | 21230 ft | 423 kts | 307° |
| 2026-04-29 11:58 | 54.26235 | -4.61398 | 20990 ft | 421 kts | 307° |
| 2026-04-29 11:59 | 54.27906 | -4.65483 | 20696 ft | 416 kts | 307° |
| 2026-04-29 11:59 | 54.29558 | -4.69529 | 20228 ft | 413 kts | 307° |
| 2026-04-29 11:59 | 54.31198 | -4.73555 | 19739 ft | 411 kts | 307° |
| 2026-04-29 11:59 | 54.32825 | -4.77561 | 19229 ft | 409 kts | 307° |
| 2026-04-29 12:00 | 54.34444 | -4.81566 | 18743 ft | 408 kts | 307° |
| 2026-04-29 12:00 | 54.36056 | -4.85558 | 18163 ft | 407 kts | 307° |
| 2026-04-29 12:00 | 54.37657 | -4.89530 | 17659 ft | 404 kts | 307° |
| 2026-04-29 12:00 | 54.39230 | -4.93440 | 17149 ft | 402 kts | 307° |
| 2026-04-29 12:01 | 54.40811 | -4.97379 | 16630 ft | 400 kts | 306° |
| 2026-04-29 12:01 | 54.42386 | -5.01309 | 16126 ft | 399 kts | 306° |
| 2026-04-29 12:01 | 54.43961 | -5.05239 | 15623 ft | 397 kts | 306° |
| 2026-04-29 12:01 | 54.45516 | -5.09115 | 15213 ft | 395 kts | 306° |
| 2026-04-29 12:02 | 54.47098 | -5.13030 | 14552 ft | 399 kts | 306° |
| 2026-04-29 12:02 | 54.48616 | -5.17027 | 14000 ft | 399 kts | 299° |
| 2026-04-29 12:02 | 54.49661 | -5.21438 | 13470 ft | 396 kts | 285° |
| 2026-04-29 12:02 | 54.50118 | -5.26067 | 12942 ft | 391 kts | 271° |
| 2026-04-29 12:03 | 54.49996 | -5.30617 | 12431 ft | 371 kts | 258° |
| 2026-04-29 12:03 | 54.49615 | -5.34909 | 11933 ft | 355 kts | 258° |
| 2026-04-29 12:03 | 54.49248 | -5.39021 | 11442 ft | 342 kts | 259° |
| 2026-04-29 12:03 | 54.48893 | -5.42996 | 10957 ft | 330 kts | 259° |
| 2026-04-29 12:04 | 54.48553 | -5.46830 | 10482 ft | 320 kts | 259° |
| 2026-04-29 12:04 | 54.48220 | -5.50561 | 9972 ft | 311 kts | 258° |
| 2026-04-29 12:04 | 54.47893 | -5.54187 | 9440 ft | 303 kts | 258° |
| 2026-04-29 12:04 | 54.47574 | -5.57725 | 8919 ft | 295 kts | 258° |
| 2026-04-29 12:05 | 54.47259 | -5.61190 | 8447 ft | 293 kts | 258° |
| 2026-04-29 12:05 | 54.46947 | -5.64610 | 8038 ft | 293 kts | 258° |
| 2026-04-29 12:05 | 54.46644 | -5.67948 | 7649 ft | 293 kts | 258° |
| 2026-04-29 12:05 | 54.46333 | -5.71372 | 7266 ft | 292 kts | 258° |
| 2026-04-29 12:06 | 54.46023 | -5.74782 | 6870 ft | 282 kts | 258° |
| 2026-04-29 12:06 | 54.45728 | -5.78039 | 6451 ft | 271 kts | 257° |
| 2026-04-29 12:06 | 54.45440 | -5.81200 | 6006 ft | 263 kts | 257° |
| 2026-04-29 12:06 | 54.45157 | -5.84259 | 5564 ft | 256 kts | 257° |
| 2026-04-29 12:07 | 54.44879 | -5.87249 | 5147 ft | 250 kts | 257° |
| 2026-04-29 12:07 | 54.44606 | -5.90176 | 4652 ft | 247 kts | 257° |
| 2026-04-29 12:07 | 54.44599 | -5.93106 | 4122 ft | 249 kts | 281° |
| 2026-04-29 12:07 | 54.45241 | -5.95873 | 3637 ft | 249 kts | 303° |
| 2026-04-29 12:08 | 54.46356 | -5.98067 | 3106 ft | 248 kts | 324° |
| 2026-04-29 12:08 | 54.47819 | -5.99465 | 2889 ft | 230 kts | 347° |
| 2026-04-29 12:08 | 54.49332 | -5.99975 | 2745 ft | 214 kts | 4° |
| 2026-04-29 12:08 | 54.50745 | -5.99748 | 2523 ft | 200 kts | 20° |
| 2026-04-29 12:09 | 54.51998 | -5.98906 | 2271 ft | 184 kts | 36° |
| 2026-04-29 12:09 | 54.53001 | -5.97758 | 2054 ft | 163 kts | 42° |
| 2026-04-29 12:09 | 54.53883 | -5.96713 | 1832 ft | 146 kts | 44° |
| 2026-04-29 12:09 | 54.54671 | -5.95747 | 1531 ft | 132 kts | 44° |
| 2026-04-29 12:10 | 54.55421 | -5.94853 | 1319 ft | 134 kts | 41° |
| 2026-04-29 12:10 | 54.56191 | -5.93966 | 1253 ft | 134 kts | 41° |
| 2026-04-29 12:10 | 54.56947 | -5.93036 | 1111 ft | 134 kts | 40° |
| 2026-04-29 12:10 | 54.57717 | -5.92116 | 966 ft | 134 kts | 38° |
| 2026-04-29 12:11 | 54.58475 | -5.91243 | 803 ft | 124 kts | 40° |
| 2026-04-29 12:11 | 54.59169 | -5.90389 | 583 ft | 124 kts | 35° |
| 2026-04-29 12:11 | 54.59868 | -5.89560 | 406 ft | 122 kts | 36° |
| 2026-04-29 12:11 | 54.60576 | -5.88713 | 211 ft | 125 kts | 34° |
| 2026-04-29 12:12 | 54.61283 | -5.87881 | 46 ft | 121 kts | 33° |
| 2026-04-29 12:12 | 54.61990 | -5.87033 | 288 ft | 135 kts | 34° |
| 2026-04-29 12:12 | 54.62818 | -5.86049 | 997 ft | 148 kts | 37° |
| 2026-04-29 12:12 | 54.63687 | -5.85063 | 1700 ft | 159 kts | 40° |
| 2026-04-29 12:13 | 54.64636 | -5.83862 | 2101 ft | 178 kts | 49° |
| 2026-04-29 12:13 | 54.65388 | -5.82055 | 2476 ft | 193 kts | 70° |
| 2026-04-29 12:13 | 54.65748 | -5.79800 | 2933 ft | 198 kts | 88° |
| 2026-04-29 12:13 | 54.65669 | -5.77482 | 3006 ft | 192 kts | 106° |
| 2026-04-29 12:14 | 54.65060 | -5.75492 | 3012 ft | 190 kts | 133° |
| 2026-04-29 12:14 | 54.63940 | -5.74294 | 3015 ft | 195 kts | 160° |
| 2026-04-29 12:14 | 54.62568 | -5.74118 | 3002 ft | 202 kts | 183° |
| 2026-04-29 12:14 | 54.61227 | -5.74948 | 3017 ft | 211 kts | 207° |
| 2026-04-29 12:15 | 54.60069 | -5.76597 | 3008 ft | 217 kts | 217° |
| 2026-04-29 12:15 | 54.58997 | -5.78419 | 3003 ft | 219 kts | 219° |
| 2026-04-29 12:15 | 54.57927 | -5.80287 | 3010 ft | 219 kts | 219° |
| 2026-04-29 12:15 | 54.56816 | -5.82089 | 3009 ft | 217 kts | 212° |
| 2026-04-29 12:16 | 54.55628 | -5.83663 | 3006 ft | 216 kts | 209° |
| 2026-04-29 12:16 | 54.54412 | -5.85212 | 3010 ft | 216 kts | 208° |
| 2026-04-29 12:16 | 54.53169 | -5.86525 | 3008 ft | 210 kts | 195° |
| 2026-04-29 12:16 | 54.51809 | -5.87348 | 3016 ft | 206 kts | 190° |
| 2026-04-29 12:17 | 54.50447 | -5.88042 | 3007 ft | 204 kts | 189° |
| 2026-04-29 12:17 | 54.49083 | -5.88719 | 2988 ft | 205 kts | 188° |
| 2026-04-29 12:17 | 54.47743 | -5.89551 | 2852 ft | 210 kts | 204° |
| 2026-04-29 12:17 | 54.46713 | -5.91376 | 2721 ft | 221 kts | 239° |
| 2026-04-29 12:18 | 54.46426 | -5.94007 | 2594 ft | 230 kts | 277° |
| 2026-04-29 12:18 | 54.47073 | -5.96464 | 2458 ft | 230 kts | 316° |
| 2026-04-29 12:18 | 54.47916 | -5.97539 | 2384 ft | 225 kts | 342° |
| 2026-04-29 12:18 | 54.49391 | -5.97968 | 2245 ft | 209 kts | 7° |
| 2026-04-29 12:19 | 54.50804 | -5.97948 | 2122 ft | 199 kts | 6° |
| 2026-04-29 12:19 | 54.52154 | -5.97926 | 2039 ft | 190 kts | 12° |
| 2026-04-29 12:19 | 54.53375 | -5.97296 | 1901 ft | 178 kts | 40° |
| 2026-04-29 12:19 | 54.54362 | -5.96134 | 1724 ft | 165 kts | 41° |
| 2026-04-29 12:20 | 54.55248 | -5.95088 | 1568 ft | 143 kts | 43° |
| 2026-04-29 12:20 | 54.56040 | -5.94145 | 1503 ft | 134 kts | 44° |
| 2026-04-29 12:20 | 54.56786 | -5.93252 | 1231 ft | 129 kts | 41° |
| 2026-04-29 12:20 | 54.57502 | -5.92402 | 1053 ft | 125 kts | 41° |
| 2026-04-29 12:21 | 54.58228 | -5.91544 | 826 ft | 124 kts | 41° |
| 2026-04-29 12:21 | 54.58933 | -5.90678 | 632 ft | 124 kts | 37° |
| 2026-04-29 12:21 | 54.59643 | -5.89823 | 480 ft | 122 kts | 38° |
| 2026-04-29 12:21 | 54.60345 | -5.88992 | 302 ft | 125 kts | 36° |
| 2026-04-29 12:22 | 54.61044 | -5.88147 | 113 ft | 123 kts | 34° |
| 2026-04-29 12:22 | 54.61704 | -5.87381 | 19 ft | 95 kts | 35° |
| 2026-04-29 12:22 | 54.62009 | -5.87010 | 18 ft | 24 kts | 34° |
| 2026-04-29 12:22 | 54.62096 | -5.86923 | 17 ft | 6 kts | 314° |
| 2026-04-29 12:23 | 54.62052 | -5.86969 | 17 ft | 16 kts | 203° |
| 2026-04-29 12:23 | 54.61957 | -5.87081 | 16 ft | 16 kts | 213° |
| 2026-04-29 12:23 | 54.61886 | -5.87164 | 20 ft | 9 kts | 212° |
| 2026-04-29 12:23 | 54.61826 | -5.87157 | 18 ft | 10 kts | 145° |
| 2026-04-29 12:24 | 54.61790 | -5.87071 | 22 ft | 6 kts | 120° |
| 2026-04-29 12:24 | 54.61774 | -5.87026 | 21 ft | 4 kts | 124° |
| 2026-04-29 12:24 | 54.61727 | -5.87000 | 21 ft | 8 kts | 198° |
| 2026-04-29 12:24 | 54.61679 | -5.87048 | 21 ft | 8 kts | 212° |
| 2026-04-29 12:25 | 54.61638 | -5.87096 | 21 ft | 7 kts | 214° |
| 2026-04-29 12:25 | 54.61602 | -5.87138 | 23 ft | 6 kts | 215° |
| 2026-04-29 12:25 | 54.61539 | -5.87177 | 21 ft | 4 kts | 156° |
| 2026-04-29 12:26 | 54.61518 | -5.87159 | 21 ft | 2 kts | 155° |
| 2026-04-29 12:26 | 54.61506 | -5.87150 | 22 ft | 1 kts | 156° |
| 2026-04-29 12:26 | 54.61503 | -5.87148 | 24 ft | 0 kts | 156° |